Time;durP1;ratioP1;P1;durP2;ratioP2;P2;SDS_P1;SDS_P2;PMS_P1;PMS_P2;Temp;Humidity;BMP_temperature;BMP_pressure;BME280_temperature;BME280_humidity;BME280_pressure;Samples;Min_cycle;Max_cycle;Signal;HPM_P1;HPM_P2
2020/12/11 00:00:21;;;;;;;32.13;13.78;;;;;;;12.78;67.95;101573.72;1693301;84;21183;-47
2020/12/11 00:02:49;;;;;;;26.93;13.45;;;;;;;12.75;68.00;101569.88;1714279;83;21162;-48
2020/12/11 00:05:17;;;;;;;27.27;14.43;;;;;;;12.73;67.96;101579.49;1699131;84;21579;-47
2020/12/11 00:07:46;;;;;;;27.67;13.50;;;;;;;12.68;67.91;101573.47;1707211;83;21203;-47
2020/12/11 00:10:16;;;;;;;28.73;14.98;;;;;;;12.65;67.98;101572.20;1697868;84;21177;-47
2020/12/11 00:12:48;;;;;;;26.55;13.75;;;;;;;12.64;68.00;101571.80;1713233;83;21205;-47
2020/12/11 00:15:14;;;;;;;24.47;12.75;;;;;;;12.63;67.95;101570.06;1709403;83;21205;-47
2020/12/11 00:17:42;;;;;;;31.85;15.13;;;;;;;12.60;67.89;101572.74;1697274;84;21316;-47
2020/12/11 00:20:11;;;;;;;30.75;13.95;;;;;;;12.57;67.96;101576.70;1714026;83;21343;-47
2020/12/11 00:22:40;;;;;;;33.45;15.00;;;;;;;12.53;68.13;101580.25;1698008;84;21246;-47
2020/12/11 00:25:09;;;;;;;30.48;14.35;;;;;;;12.51;68.20;101568.13;1712749;83;21201;-47
2020/12/11 00:27:38;;;;;;;36.25;15.85;;;;;;;12.49;68.15;101569.44;1699107;84;21674;-47
2020/12/11 00:30:06;;;;;;;33.73;14.07;;;;;;;12.48;67.98;101565.13;1715446;83;21173;-48
2020/12/11 00:32:36;;;;;;;25.92;12.95;;;;;;;12.47;68.05;101552.11;1698870;84;21190;-47
2020/12/11 00:35:07;;;;;;;36.35;15.38;;;;;;;12.46;68.11;101552.98;1715867;83;21197;-47
2020/12/11 00:37:43;;;;;;;35.30;16.93;;;;;;;12.50;68.18;101539.86;1794758;79;27774;-47
2020/12/11 00:40:11;;;;;;;29.32;13.95;;;;;;;12.50;68.05;101546.81;1784220;80;21212;-47
2020/12/11 00:42:39;;;;;;;25.92;13.98;;;;;;;12.54;67.85;101546.74;1776496;80;21128;-47
2020/12/11 00:45:07;;;;;;;30.40;14.58;;;;;;;12.54;67.90;101545.87;1779565;80;21155;-47
2020/12/11 00:47:37;;;;;;;28.12;15.18;;;;;;;12.53;67.92;101541.56;1780489;80;21171;-48
2020/12/11 00:50:05;;;;;;;25.60;14.65;;;;;;;12.50;67.96;101538.98;1780045;80;21167;-47
2020/12/11 00:52:33;;;;;;;30.72;14.90;;;;;;;12.49;68.01;101540.72;1777852;80;21234;-47
2020/12/11 00:55:02;;;;;;;34.55;17.10;;;;;;;12.48;68.10;101537.71;1777461;80;21156;-47
2020/12/11 00:57:30;;;;;;;35.33;14.68;;;;;;;12.48;68.07;101536.41;1767130;80;21298;-47
2020/12/11 00:59:59;;;;;;;34.33;15.60;;;;;;;12.46;68.17;101529.05;1775904;80;21349;-47
2020/12/11 01:02:27;;;;;;;33.02;13.95;;;;;;;12.47;68.19;101525.53;1778249;80;21124;-48
2020/12/11 01:04:55;;;;;;;35.38;15.10;;;;;;;12.49;68.07;101532.89;1779155;80;21140;-47
2020/12/11 01:07:23;;;;;;;32.25;14.43;;;;;;;12.47;67.98;101530.75;1780090;80;21163;-47
2020/12/11 01:09:53;;;;;;;33.15;13.80;;;;;;;12.47;68.09;101530.75;1769949;80;21121;-47
2020/12/11 01:12:21;;;;;;;33.85;14.00;;;;;;;12.47;67.99;101516.40;1776211;80;21278;-47
2020/12/11 01:14:50;;;;;;;32.20;15.40;;;;;;;12.47;67.98;101522.09;1776940;80;21156;-47
2020/12/11 01:17:19;;;;;;;34.13;15.30;;;;;;;12.47;67.92;101520.31;1778839;80;21144;-46
2020/12/11 01:19:47;;;;;;;25.50;13.35;;;;;;;12.45;67.86;101510.34;1780058;80;21350;-47
2020/12/11 01:22:15;;;;;;;29.63;13.68;;;;;;;12.45;67.83;101507.73;1780113;80;21286;-47
2020/12/11 01:24:43;;;;;;;35.50;14.63;;;;;;;12.44;67.75;101511.69;1777962;80;21191;-47
2020/12/11 01:27:12;;;;;;;26.70;12.95;;;;;;;12.42;67.71;101514.77;1778443;80;21144;-48
2020/12/11 01:29:40;;;;;;;31.02;14.05;;;;;;;12.41;67.64;101507.81;1779186;80;21155;-47
2020/12/11 01:32:08;;;;;;;32.10;14.63;;;;;;;12.37;67.58;101501.79;1772694;80;21148;-47
2020/12/11 01:34:37;;;;;;;32.05;13.48;;;;;;;12.36;67.70;101495.30;1782509;80;21187;-47
2020/12/11 01:37:05;;;;;;;31.40;13.53;;;;;;;12.37;67.71;101500.48;1773870;80;21278;-47
2020/12/11 01:39:34;;;;;;;31.40;13.28;;;;;;;12.38;67.58;101500.92;1769507;80;21140;-47
2020/12/11 01:42:12;;;;;;;27.65;13.35;;;;;;;12.37;67.45;101490.05;1768922;80;21137;-47
2020/12/11 01:44:52;;;;;;;31.62;12.80;;;;;;;12.33;67.41;101497.52;1767203;80;21624;-47
2020/12/11 01:47:22;;;;;;;30.90;13.53;;;;;;;12.33;67.48;101494.90;1706259;83;21173;-47
2020/12/11 01:49:52;;;;;;;33.25;13.25;;;;;;;12.34;67.45;101486.20;1705638;83;21178;-47
2020/12/11 01:52:20;;;;;;;32.80;13.70;;;;;;;12.36;67.31;101494.86;1699033;83;21181;-47
2020/12/11 01:54:49;;;;;;;29.23;13.15;;;;;;;12.36;67.13;101489.64;1707815;83;21186;-47
2020/12/11 01:57:40;;;;;;;25.97;12.25;;;;;;;12.35;67.03;101488.34;1708509;83;21198;-47
2020/12/11 02:00:13;;;;;;;32.08;14.95;;;;;;;12.37;67.06;101482.22;1795007;79;27999;-47
2020/12/11 02:02:42;;;;;;;26.07;11.83;;;;;;;12.34;67.04;101479.67;1768344;80;21176;-47
2020/12/11 02:05:10;;;;;;;29.82;12.23;;;;;;;12.39;66.83;101484.35;1775043;80;21270;-47
2020/12/11 02:07:38;;;;;;;32.10;12.37;;;;;;;12.40;66.78;101478.27;1761469;80;21179;-47
2020/12/11 02:10:08;;;;;;;23.57;10.85;;;;;;;12.39;66.73;101475.22;1772246;80;21131;-47
2020/12/11 02:12:37;;;;;;;33.50;12.40;;;;;;;12.39;66.66;101481.74;1771791;80;21129;-47
2020/12/11 02:15:06;;;;;;;30.27;12.78;;;;;;;12.34;66.64;101474.45;1771685;80;21132;-47
2020/12/11 02:17:36;;;;;;;28.15;12.50;;;;;;;12.29;66.61;101473.66;1772547;80;21144;-48
2020/12/11 02:20:04;;;;;;;28.55;11.50;;;;;;;12.28;66.68;101463.26;1771972;80;21172;-47
2020/12/11 02:22:33;;;;;;;30.17;11.68;;;;;;;12.24;66.61;101467.67;1772647;80;21160;-47
2020/12/11 02:25:02;;;;;;;31.77;12.25;;;;;;;12.22;66.64;101472.03;1775096;80;21164;-47
2020/12/11 02:27:31;;;;;;;26.02;10.68;;;;;;;12.21;66.55;101467.72;1775058;80;21144;-47
2020/12/11 02:29:59;;;;;;;26.55;11.20;;;;;;;12.19;66.56;101459.92;1771238;80;21136;-47
2020/12/11 02:32:28;;;;;;;29.42;12.80;;;;;;;12.15;66.69;101465.21;1761370;80;21294;-47
2020/12/11 02:34:56;;;;;;;24.05;12.00;;;;;;;12.14;66.77;101470.00;1768007;80;21148;-47
2020/12/11 02:37:24;;;;;;;24.98;11.28;;;;;;;12.13;66.77;101465.25;1775045;80;21282;-48
2020/12/11 02:39:53;;;;;;;28.17;10.78;;;;;;;12.12;66.71;101466.12;1775026;80;21124;-47
2020/12/11 02:42:23;;;;;;;27.30;12.80;;;;;;;12.11;66.66;101462.23;1772764;80;21187;-47
2020/12/11 02:44:51;;;;;;;30.80;12.98;;;;;;;12.10;66.72;101461.80;1773458;80;21638;-48
2020/12/11 02:47:20;;;;;;;28.47;12.73;;;;;;;12.09;66.75;101458.36;1774835;80;21124;-47
2020/12/11 02:49:48;;;;;;;31.60;13.48;;;;;;;12.12;66.76;101457.42;1775112;80;21123;-47
2020/12/11 02:52:16;;;;;;;24.10;11.90;;;;;;;12.14;66.51;101446.52;1774994;80;21580;-47
2020/12/11 02:54:46;;;;;;;29.85;13.43;;;;;;;12.11;66.35;101446.15;1773460;80;21151;-47
2020/12/11 02:57:14;;;;;;;31.80;11.85;;;;;;;12.07;66.38;101450.14;1772110;80;21168;-47
2020/12/11 02:59:42;;;;;;;26.25;12.60;;;;;;;12.03;66.41;101441.95;1751386;80;21172;-49
2020/12/11 03:02:11;;;;;;;26.80;11.75;;;;;;;12.01;66.56;101442.41;1761918;81;21152;-47
2020/12/11 03:04:39;;;;;;;29.00;12.45;;;;;;;12.00;66.38;101433.72;1761830;81;21601;-47
2020/12/11 03:07:07;;;;;;;37.95;15.00;;;;;;;11.97;66.27;101436.83;1761369;81;21282;-47
2020/12/11 03:09:37;;;;;;;31.25;13.85;;;;;;;11.93;66.37;101442.52;1759137;81;21165;-47
2020/12/11 03:12:05;;;;;;;30.40;13.62;;;;;;;11.92;66.41;101440.81;1745561;81;21176;-47
2020/12/11 03:14:33;;;;;;;34.30;14.35;;;;;;;11.93;66.46;101441.69;1760541;80;21160;-47
2020/12/11 03:17:01;;;;;;;31.73;14.05;;;;;;;11.92;66.48;101443.86;1761350;81;21135;-47
2020/12/11 03:19:30;;;;;;;29.65;14.18;;;;;;;11.90;66.44;101444.33;1761353;81;21159;-47
2020/12/11 03:21:58;;;;;;;27.27;13.15;;;;;;;11.89;66.33;101440.84;1756413;81;21113;-47
2020/12/11 03:24:26;;;;;;;37.85;14.83;;;;;;;11.88;66.31;101429.15;1758033;81;21148;-47
2020/12/11 03:26:54;;;;;;;27.95;13.50;;;;;;;11.85;66.27;101439.17;1758116;81;21144;-47
2020/12/11 03:29:22;;;;;;;29.55;13.83;;;;;;;11.83;66.35;101444.02;1752671;81;21294;-48
2020/12/11 03:31:51;;;;;;;29.52;13.30;;;;;;;11.83;66.36;101449.23;1761243;81;21307;-47
2020/12/11 03:34:19;;;;;;;29.67;13.72;;;;;;;11.83;66.31;101439.64;1759105;81;21136;-47
2020/12/11 03:36:48;;;;;;;40.10;14.68;;;;;;;11.81;66.37;101437.97;1758007;81;21265;-47
2020/12/11 03:39:17;;;;;;;39.40;14.90;;;;;;;11.79;66.37;101442.32;1758218;81;21148;-47
2020/12/11 03:41:53;;;;;;;26.50;13.72;;;;;;;11.76;66.46;101439.78;1758206;81;21282;-47
2020/12/11 03:44:22;;;;;;;32.42;13.75;;;;;;;11.75;66.46;101431.52;1756211;81;21112;-47
2020/12/11 03:46:50;;;;;;;26.02;11.75;;;;;;;11.74;66.52;101429.81;1758244;81;21140;-47
2020/12/11 03:49:19;;;;;;;27.70;12.93;;;;;;;11.73;66.47;101434.59;1756590;81;21157;-47
2020/12/11 03:51:47;;;;;;;29.60;14.03;;;;;;;11.71;66.41;101435.06;1761347;81;21160;-47
2020/12/11 03:54:15;;;;;;;28.23;14.20;;;;;;;11.68;66.40;101435.12;1761498;81;21172;-47
2020/12/11 03:56:44;;;;;;;29.52;14.50;;;;;;;11.63;66.40;101439.50;1757167;81;21573;-47
2020/12/11 03:59:13;;;;;;;26.95;13.05;;;;;;;11.60;66.54;101431.75;1750146;80;21265;-47
2020/12/11 04:01:41;;;;;;;35.95;14.18;;;;;;;11.57;66.68;101431.78;1766355;80;21278;-47
2020/12/11 04:04:09;;;;;;;31.85;14.80;;;;;;;11.55;66.77;101423.13;1768411;80;21144;-47
2020/12/11 04:06:37;;;;;;;37.05;14.45;;;;;;;11.51;66.82;101431.88;1769675;80;21591;-47
2020/12/11 04:09:06;;;;;;;33.80;14.87;;;;;;;11.48;66.79;101423.22;1765587;80;21537;-48
2020/12/11 04:11:35;;;;;;;38.02;14.45;;;;;;;11.44;66.79;101426.75;1765346;80;21533;-47
2020/12/11 04:14:04;;;;;;;32.67;13.95;;;;;;;11.40;66.91;101423.77;1770375;80;21286;-47
2020/12/11 04:16:33;;;;;;;35.20;15.30;;;;;;;11.41;67.01;101429.85;1769530;80;21135;-47
2020/12/11 04:19:02;;;;;;;33.70;12.68;;;;;;;11.43;67.03;101426.34;1767663;80;21164;-47
2020/12/11 04:21:30;;;;;;;24.82;11.25;;;;;;;11.45;66.80;101428.48;1766451;80;21279;-47
2020/12/11 04:23:58;;;;;;;33.53;13.48;;;;;;;11.42;66.60;101423.31;1766439;80;21148;-47
2020/12/11 04:26:26;;;;;;;25.43;11.33;;;;;;;11.38;66.51;101430.75;1757939;80;21274;-47
2020/12/11 04:28:55;;;;;;;24.98;10.78;;;;;;;11.36;66.49;101433.82;1769519;80;21136;-47
2020/12/11 04:31:23;;;;;;;35.40;13.08;;;;;;;11.33;66.42;101429.94;1763965;80;21179;-47
2020/12/11 04:33:52;;;;;;;27.62;11.70;;;;;;;11.30;66.37;101441.72;1766297;80;21105;-47
2020/12/11 04:36:20;;;;;;;22.40;11.03;;;;;;;11.27;66.34;101433.94;1766763;80;21572;-47
2020/12/11 04:38:48;;;;;;;29.45;12.80;;;;;;;11.24;66.42;101434.00;1766132;80;21144;-47
2020/12/11 04:41:16;;;;;;;31.87;12.63;;;;;;;11.21;66.43;101428.81;1768524;80;21612;-47
2020/12/11 04:43:49;;;;;;;23.52;11.43;;;;;;;11.16;66.40;101435.84;1743369;80;21175;-47
2020/12/11 04:46:28;;;;;;;29.67;12.03;;;;;;;11.18;66.36;101426.27;1818375;79;23741;-47
2020/12/11 04:48:56;;;;;;;28.15;11.70;;;;;;;11.13;66.26;101432.39;1789972;80;21171;-47
2020/12/11 04:51:31;;;;;;;26.48;11.33;;;;;;;11.10;66.29;101429.41;1778790;80;21311;-47
2020/12/11 04:54:00;;;;;;;31.50;12.73;;;;;;;11.08;66.45;101428.58;1720693;83;21314;-47
2020/12/11 04:56:28;;;;;;;31.57;13.25;;;;;;;11.08;66.55;101424.67;1752189;81;21150;-47
2020/12/11 04:58:57;;;;;;;31.52;12.95;;;;;;;11.08;66.40;101440.30;1722086;82;21166;-47
2020/12/11 05:01:32;;;;;;;29.35;13.50;;;;;;;11.04;66.30;101438.61;1747650;81;21161;-47
2020/12/11 05:04:01;;;;;;;25.08;12.33;;;;;;;11.00;66.27;101443.87;1739657;82;21156;-47
2020/12/11 05:06:29;;;;;;;29.63;11.85;;;;;;;10.94;66.38;101435.67;1743827;81;21178;-47
2020/12/11 05:09:12;;;;;;;35.25;12.78;;;;;;;10.90;66.48;101439.20;1740112;82;21158;-47
2020/12/11 05:11:42;;;;;;;35.35;13.45;;;;;;;10.89;66.57;101434.02;1676234;84;21176;-47
2020/12/11 05:14:23;;;;;;;31.93;12.00;;;;;;;10.85;66.56;101438.41;1712174;83;21206;-47
2020/12/11 05:17:06;;;;;;;26.93;10.72;;;;;;;10.82;66.58;101438.43;1691891;84;21220;-48
2020/12/11 05:19:51;;;;;;;27.67;12.07;;;;;;;10.80;66.54;101443.26;1692847;84;21132;-48
2020/12/11 05:22:20;;;;;;;27.17;11.55;;;;;;;10.77;66.53;101450.66;1695920;84;21229;-46
2020/12/11 05:24:51;;;;;;;29.30;11.85;;;;;;;10.76;66.64;101451.98;1696068;84;21185;-47
2020/12/11 05:27:43;;;;;;;29.60;12.28;;;;;;;10.74;66.55;101456.34;1695813;84;21257;-46
2020/12/11 05:30:16;;;;;;;30.65;12.53;;;;;;;10.71;66.50;101465.05;1691855;84;21189;-47
2020/12/11 05:32:48;;;;;;;29.18;11.95;;;;;;;10.69;66.60;101469.41;1690452;84;21269;-47
2020/12/11 05:35:25;;;;;;;26.90;12.35;;;;;;;10.67;66.49;101463.36;1695814;84;22313;-47
2020/12/11 05:38:05;;;;;;;27.93;11.70;;;;;;;10.63;66.45;101469.01;1694607;84;21186;-48
2020/12/11 05:40:41;;;;;;;24.37;11.88;;;;;;;10.63;66.44;101467.70;1694552;84;21324;-47
2020/12/11 05:43:22;;;;;;;27.62;11.95;;;;;;;10.64;66.24;101473.78;1695660;84;21328;-47
2020/12/11 05:45:59;;;;;;;26.40;11.63;;;;;;;10.63;66.20;101473.38;1679895;84;21170;-47
2020/12/11 05:48:38;;;;;;;27.65;11.97;;;;;;;10.58;66.10;101484.26;1701170;82;21192;-48
2020/12/11 05:51:13;;;;;;;26.77;12.05;;;;;;;10.57;66.10;101484.69;1734980;82;21189;-47
2020/12/11 05:53:43;;;;;;;26.93;11.28;;;;;;;10.55;65.93;101492.95;1732733;82;21125;-48
2020/12/11 05:56:11;;;;;;;32.40;12.10;;;;;;;10.51;66.01;101479.55;1729247;82;21216;-47
2020/12/11 05:58:39;;;;;;;29.10;12.25;;;;;;;10.49;66.04;101481.73;1727744;82;21181;-48
2020/12/11 06:01:07;;;;;;;38.63;12.85;;;;;;;10.46;66.18;101479.18;1715275;82;21187;-48
2020/12/11 06:03:35;;;;;;;35.80;13.30;;;;;;;10.45;66.14;101482.64;1689921;82;21172;-47
2020/12/11 06:06:04;;;;;;;28.65;12.58;;;;;;;10.42;66.16;101483.56;1741387;82;21581;-48
2020/12/11 06:08:34;;;;;;;27.65;13.35;;;;;;;10.41;66.13;101486.16;1728831;82;21208;-48
2020/12/11 06:11:03;;;;;;;33.53;13.40;;;;;;;10.39;66.16;101494.41;1742866;82;21735;-47
2020/12/11 06:13:39;;;;;;;24.80;11.80;;;;;;;10.36;66.11;101491.86;1732339;82;21193;-47
2020/12/11 06:16:08;;;;;;;31.00;12.30;;;;;;;10.33;66.05;101503.58;1699960;84;21225;-47
2020/12/11 06:18:36;;;;;;;31.20;13.55;;;;;;;10.30;66.13;101499.72;1662590;85;21178;-47
2020/12/11 06:21:04;;;;;;;27.87;13.20;;;;;;;10.29;66.10;101494.94;1701267;83;21205;-47
2020/12/11 06:23:32;;;;;;;27.90;12.68;;;;;;;10.28;66.06;101493.66;1700778;84;21333;-47
2020/12/11 06:26:01;;;;;;;31.15;12.65;;;;;;;10.25;66.13;101487.17;1686403;84;21139;-47
2020/12/11 06:28:48;;;;;;;26.20;12.47;;;;;;;10.24;66.28;101493.27;1700961;84;21204;-47
2020/12/11 06:31:23;;;;;;;32.53;13.10;;;;;;;10.28;66.11;101490.60;1771847;79;23597;-47
2020/12/11 06:33:55;;;;;;;26.40;12.78;;;;;;;10.22;66.02;101495.02;1728433;82;21156;-47
2020/12/11 06:36:23;;;;;;;30.72;13.58;;;;;;;10.20;66.05;101495.48;1741768;82;21561;-47
2020/12/11 06:38:54;;;;;;;37.20;12.50;;;;;;;10.18;66.13;101486.83;1739912;82;21299;-47
2020/12/11 06:41:33;;;;;;;32.25;13.58;;;;;;;10.17;66.07;101486.38;1738567;80;21180;-47
2020/12/11 06:44:15;;;;;;;21.70;11.65;;;;;;;10.15;66.12;101488.13;1738479;82;21290;-47
2020/12/11 06:46:43;;;;;;;33.08;13.80;;;;;;;10.12;66.08;101498.58;1738366;82;21196;-47
2020/12/11 06:49:17;;;;;;;30.80;13.50;;;;;;;10.10;66.10;101497.70;1723722;83;21164;-47
2020/12/11 06:51:50;;;;;;;26.97;13.05;;;;;;;10.09;65.97;101488.16;1728349;82;21160;-47
2020/12/11 06:54:27;;;;;;;29.10;13.58;;;;;;;10.07;65.95;101479.50;1741362;82;21286;-47
2020/12/11 06:56:58;;;;;;;29.87;12.88;;;;;;;10.04;65.93;101489.91;1741664;82;21656;-47
2020/12/11 07:02:16;;;;;;;27.25;12.43;;;;;;;10.02;65.95;101491.66;1811564;79;22939;-47
2020/12/11 07:04:46;;;;;;;23.25;11.63;;;;;;;9.95;65.88;101484.80;1784258;80;21151;-47
2020/12/11 07:07:14;;;;;;;21.60;13.00;;;;;;;9.92;65.64;101488.71;1783894;80;21109;-47
2020/12/11 07:09:47;;;;;;;22.62;12.65;;;;;;;9.84;65.76;101492.67;1791023;80;21551;-47
2020/12/11 07:12:16;;;;;;;30.57;13.83;;;;;;;9.81;65.82;101469.28;1721486;83;21159;-45
2020/12/11 07:14:47;;;;;;;25.92;12.65;;;;;;;9.77;65.80;101484.05;1736134;81;21127;-48
2020/12/11 07:17:29;;;;;;;28.87;13.83;;;;;;;9.77;66.00;101485.78;1734852;82;21144;-47
2020/12/11 07:19:58;;;;;;;25.55;13.62;;;;;;;9.78;65.83;101485.80;1741813;81;21166;-47
2020/12/11 07:22:27;;;;;;;22.10;13.15;;;;;;;9.75;65.79;101483.20;1748888;81;21176;-47
2020/12/11 07:24:55;;;;;;;28.38;13.22;;;;;;;9.74;65.64;101485.81;1700832;81;21141;-47
2020/12/11 07:27:23;;;;;;;30.62;14.25;;;;;;;9.70;65.69;101478.48;1712371;82;21204;-48
2020/12/11 07:29:51;;;;;;;27.75;13.10;;;;;;;9.68;65.78;101491.05;1751786;81;21174;-47
2020/12/11 07:32:20;;;;;;;25.68;13.30;;;;;;;9.64;65.66;101482.39;1746627;81;21304;-47
2020/12/11 07:34:48;;;;;;;28.83;13.95;;;;;;;9.59;65.67;101484.18;1742302;81;21207;-47
2020/12/11 07:37:17;;;;;;;32.75;13.55;;;;;;;9.56;65.77;101481.58;1735857;82;21175;-47
2020/12/11 07:39:46;;;;;;;28.17;12.75;;;;;;;9.54;65.86;101485.92;1738120;82;21156;-47
2020/12/11 07:42:16;;;;;;;26.02;13.28;;;;;;;9.55;65.92;101483.77;1742215;81;21127;-47
2020/12/11 07:44:44;;;;;;;28.98;13.10;;;;;;;9.55;65.84;101479.88;1740777;81;21333;-47
2020/12/11 07:47:17;;;;;;;25.37;11.43;;;;;;;9.56;65.82;101487.23;1728468;81;21327;-47
2020/12/11 07:49:47;;;;;;;21.93;11.43;;;;;;;9.55;65.78;101482.47;1745276;81;21160;-47
2020/12/11 07:52:22;;;;;;;28.25;13.65;;;;;;;9.53;65.52;101485.52;1743307;82;21180;-47
2020/12/11 07:54:51;;;;;;;21.12;11.35;;;;;;;9.51;65.54;101486.39;1751788;81;21302;-47
2020/12/11 07:57:22;;;;;;;25.57;12.18;;;;;;;9.48;65.66;101488.56;1734264;81;21602;-47
2020/12/11 07:59:58;;;;;;;29.77;12.63;;;;;;;9.45;65.67;101487.30;1712041;83;21145;-48
2020/12/11 08:02:27;;;;;;;31.15;13.85;;;;;;;9.43;65.57;101490.34;1728407;82;21224;-47
2020/12/11 08:04:56;;;;;;;25.08;11.78;;;;;;;9.41;65.76;101489.48;1778033;81;21218;-47
2020/12/11 08:07:29;;;;;;;20.75;11.30;;;;;;;9.41;65.78;101498.58;1692058;84;21308;-44
2020/12/11 08:10:16;;;;;;;27.45;12.80;;;;;;;9.40;65.66;101485.14;1769820;81;21171;-48
2020/12/11 08:12:44;;;;;;;26.37;12.25;;;;;;;9.39;65.73;101483.44;1689371;85;21162;-47
2020/12/11 08:15:31;;;;;;;22.10;11.08;;;;;;;9.38;65.63;101484.30;1682111;84;21227;-47
2020/12/11 08:18:26;;;;;;;23.87;11.63;;;;;;;9.40;65.61;101481.67;1814625;79;23111;-47
2020/12/11 08:21:00;;;;;;;23.02;10.90;;;;;;;9.33;65.56;101470.48;1787676;80;21164;-47
2020/12/11 08:26:19;;;;;;;23.77;12.43;;;;;;;9.30;65.73;101470.48;1771708;79;22947;-47
2020/12/11 08:28:49;;;;;;;29.65;11.78;;;;;;;9.24;65.93;101471.81;1744747;82;21156;-47
2020/12/11 08:31:21;;;;;;;27.17;12.85;;;;;;;9.26;65.82;101462.28;1739315;82;21136;-47
2020/12/11 08:33:52;;;;;;;24.37;12.07;;;;;;;9.24;65.76;101465.33;1735004;82;21539;-47
2020/12/11 08:36:26;;;;;;;22.07;10.88;;;;;;;9.21;65.65;101461.43;1737608;82;21148;-47
2020/12/11 08:39:23;;;;;;;24.20;11.68;;;;;;;9.19;65.75;101457.98;1741147;82;21212;-47
2020/12/11 08:52:23;;;;;;;23.22;11.57;;;;;;;9.15;66.01;101454.97;1771449;79;22698;-47
2020/12/11 08:54:53;;;;;;;24.12;11.20;;;;;;;9.12;66.01;101448.52;1740083;82;21176;-47
2020/12/11 08:57:22;;;;;;;23.62;10.13;;;;;;;9.11;65.92;101441.58;1735641;82;21277;-47
2020/12/11 08:59:50;;;;;;;19.67;11.03;;;;;;;9.10;65.93;101438.57;1737368;82;21136;-48
2020/12/11 09:02:18;;;;;;;20.48;11.10;;;;;;;9.07;65.81;101439.87;1737107;82;21193;-47
2020/12/11 09:04:46;;;;;;;19.35;10.65;;;;;;;9.04;65.91;101428.22;1736164;82;21137;-47
2020/12/11 09:07:16;;;;;;;27.60;9.90;;;;;;;9.04;65.94;101434.70;1732504;82;21581;-47
2020/12/11 09:09:44;;;;;;;20.17;11.38;;;;;;;9.03;65.95;101430.83;1744714;81;21293;-47
2020/12/11 09:12:13;;;;;;;20.57;10.85;;;;;;;9.01;65.86;101425.62;1740915;82;21163;-48
2020/12/11 09:14:41;;;;;;;21.65;11.00;;;;;;;9.00;65.71;101423.91;1734606;82;21112;-47
2020/12/11 09:17:09;;;;;;;20.95;10.43;;;;;;;8.97;65.91;101420.89;1741586;82;21120;-47
2020/12/11 09:19:37;;;;;;;19.23;9.53;;;;;;;8.96;66.00;101406.63;1737398;82;21128;-47
2020/12/11 09:22:06;;;;;;;20.08;9.65;;;;;;;8.95;65.94;101417.86;1738623;82;21618;-47
2020/12/11 09:24:34;;;;;;;19.12;10.53;;;;;;;8.96;65.89;101417.02;1738107;82;21149;-47
2020/12/11 09:27:05;;;;;;;22.40;10.93;;;;;;;8.95;65.75;101423.06;1740244;82;21291;-45
